sensor_id;sensor_type;location;lat;lon;timestamp;P1;durP1;ratioP1;P2;durP2;ratioP2
55815;SDS011;41744;52.404;16.942;2024-01-30T00:01:30;45.07;;;18.30;;
55815;SDS011;41744;52.404;16.942;2024-01-30T00:03:56;47.57;;;16.80;;
55815;SDS011;41744;52.404;16.942;2024-01-30T00:06:22;50.30;;;17.67;;
55815;SDS011;41744;52.404;16.942;2024-01-30T00:08:48;43.47;;;16.40;;
55815;SDS011;41744;52.404;16.942;2024-01-30T00:11:15;42.60;;;15.87;;
55815;SDS011;41744;52.404;16.942;2024-01-30T00:13:41;45.87;;;15.77;;
55815;SDS011;41744;52.404;16.942;2024-01-30T00:16:07;44.77;;;14.97;;
55815;SDS011;41744;52.404;16.942;2024-01-30T00:18:34;41.23;;;15.33;;
55815;SDS011;41744;52.404;16.942;2024-01-30T00:21:00;44.73;;;15.70;;
55815;SDS011;41744;52.404;16.942;2024-01-30T00:23:26;44.33;;;15.73;;
55815;SDS011;41744;52.404;16.942;2024-01-30T00:25:52;49.50;;;15.03;;
55815;SDS011;41744;52.404;16.942;2024-01-30T00:28:18;47.47;;;15.93;;
55815;SDS011;41744;52.404;16.942;2024-01-30T00:30:44;43.93;;;15.07;;
55815;SDS011;41744;52.404;16.942;2024-01-30T00:33:10;43.73;;;15.30;;
55815;SDS011;41744;52.404;16.942;2024-01-30T00:35:36;44.67;;;15.03;;
55815;SDS011;41744;52.404;16.942;2024-01-30T00:38:02;41.60;;;14.97;;
55815;SDS011;41744;52.404;16.942;2024-01-30T00:40:28;43.20;;;15.10;;
55815;SDS011;41744;52.404;16.942;2024-01-30T00:42:54;43.17;;;15.20;;
55815;SDS011;41744;52.404;16.942;2024-01-30T00:45:20;42.27;;;15.80;;
55815;SDS011;41744;52.404;16.942;2024-01-30T00:47:45;43.33;;;15.67;;
55815;SDS011;41744;52.404;16.942;2024-01-30T00:50:11;40.77;;;15.30;;
55815;SDS011;41744;52.404;16.942;2024-01-30T00:52:37;40.23;;;15.20;;
55815;SDS011;41744;52.404;16.942;2024-01-30T00:55:05;46.27;;;15.53;;
55815;SDS011;41744;52.404;16.942;2024-01-30T00:57:31;42.67;;;15.87;;
55815;SDS011;41744;52.404;16.942;2024-01-30T00:59:57;43.50;;;15.67;;
55815;SDS011;41744;52.404;16.942;2024-01-30T01:02:23;44.97;;;15.47;;
55815;SDS011;41744;52.404;16.942;2024-01-30T01:04:49;42.93;;;15.70;;
55815;SDS011;41744;52.404;16.942;2024-01-30T01:07:15;36.83;;;14.13;;
55815;SDS011;41744;52.404;16.942;2024-01-30T01:09:41;45.50;;;15.73;;
55815;SDS011;41744;52.404;16.942;2024-01-30T01:12:07;46.07;;;15.90;;
55815;SDS011;41744;52.404;16.942;2024-01-30T01:14:33;49.57;;;15.63;;
55815;SDS011;41744;52.404;16.942;2024-01-30T01:16:59;38.60;;;14.83;;
55815;SDS011;41744;52.404;16.942;2024-01-30T01:19:25;44.43;;;15.53;;
55815;SDS011;41744;52.404;16.942;2024-01-30T01:21:50;44.63;;;14.57;;
55815;SDS011;41744;52.404;16.942;2024-01-30T01:24:17;36.23;;;14.67;;
55815;SDS011;41744;52.404;16.942;2024-01-30T01:26:43;41.77;;;14.53;;
55815;SDS011;41744;52.404;16.942;2024-01-30T01:29:09;39.73;;;14.20;;
55815;SDS011;41744;52.404;16.942;2024-01-30T01:31:37;37.57;;;13.93;;
55815;SDS011;41744;52.404;16.942;2024-01-30T01:34:11;35.43;;;14.00;;
55815;SDS011;41744;52.404;16.942;2024-01-30T01:36:37;37.33;;;14.10;;
55815;SDS011;41744;52.404;16.942;2024-01-30T01:39:03;39.67;;;13.83;;
55815;SDS011;41744;52.404;16.942;2024-01-30T01:41:32;37.40;;;13.80;;
55815;SDS011;41744;52.404;16.942;2024-01-30T01:43:59;39.43;;;13.53;;
55815;SDS011;41744;52.404;16.942;2024-01-30T01:46:30;42.10;;;13.47;;
55815;SDS011;41744;52.404;16.942;2024-01-30T01:48:56;42.20;;;14.30;;
55815;SDS011;41744;52.404;16.942;2024-01-30T01:51:23;32.93;;;12.57;;
55815;SDS011;41744;52.404;16.942;2024-01-30T01:53:50;36.47;;;13.20;;
55815;SDS011;41744;52.404;16.942;2024-01-30T01:56:16;33.63;;;12.93;;
55815;SDS011;41744;52.404;16.942;2024-01-30T01:58:42;32.37;;;12.30;;
55815;SDS011;41744;52.404;16.942;2024-01-30T02:01:10;31.57;;;12.67;;
55815;SDS011;41744;52.404;16.942;2024-01-30T02:03:36;37.87;;;13.20;;
55815;SDS011;41744;52.404;16.942;2024-01-30T02:06:03;38.13;;;13.53;;
55815;SDS011;41744;52.404;16.942;2024-01-30T02:08:30;34.50;;;13.43;;
55815;SDS011;41744;52.404;16.942;2024-01-30T02:10:56;38.47;;;13.67;;
55815;SDS011;41744;52.404;16.942;2024-01-30T02:13:22;38.80;;;14.07;;
55815;SDS011;41744;52.404;16.942;2024-01-30T02:15:51;36.10;;;13.70;;
55815;SDS011;41744;52.404;16.942;2024-01-30T02:18:18;37.27;;;13.00;;
55815;SDS011;41744;52.404;16.942;2024-01-30T02:20:44;42.73;;;14.37;;
55815;SDS011;41744;52.404;16.942;2024-01-30T02:23:11;39.40;;;13.43;;
55815;SDS011;41744;52.404;16.942;2024-01-30T02:25:40;34.60;;;13.17;;
55815;SDS011;41744;52.404;16.942;2024-01-30T02:28:09;37.00;;;13.83;;
55815;SDS011;41744;52.404;16.942;2024-01-30T02:30:36;32.90;;;13.33;;
55815;SDS011;41744;52.404;16.942;2024-01-30T02:33:02;43.93;;;14.17;;
55815;SDS011;41744;52.404;16.942;2024-01-30T02:35:28;36.10;;;13.07;;
55815;SDS011;41744;52.404;16.942;2024-01-30T02:37:54;33.33;;;12.43;;
55815;SDS011;41744;52.404;16.942;2024-01-30T02:40:20;33.60;;;12.90;;
55815;SDS011;41744;52.404;16.942;2024-01-30T02:42:46;31.73;;;12.67;;
55815;SDS011;41744;52.404;16.942;2024-01-30T02:45:13;32.20;;;12.40;;
55815;SDS011;41744;52.404;16.942;2024-01-30T02:47:39;32.27;;;12.80;;
55815;SDS011;41744;52.404;16.942;2024-01-30T02:50:05;33.97;;;13.03;;
55815;SDS011;41744;52.404;16.942;2024-01-30T02:52:32;38.47;;;12.67;;
55815;SDS011;41744;52.404;16.942;2024-01-30T02:54:58;34.57;;;13.00;;
55815;SDS011;41744;52.404;16.942;2024-01-30T02:57:24;33.93;;;13.10;;
55815;SDS011;41744;52.404;16.942;2024-01-30T02:59:50;34.03;;;12.63;;
55815;SDS011;41744;52.404;16.942;2024-01-30T03:02:16;33.87;;;12.37;;
55815;SDS011;41744;52.404;16.942;2024-01-30T03:04:42;32.37;;;11.73;;
55815;SDS011;41744;52.404;16.942;2024-01-30T03:07:08;33.87;;;13.00;;
55815;SDS011;41744;52.404;16.942;2024-01-30T03:09:34;36.60;;;11.33;;
55815;SDS011;41744;52.404;16.942;2024-01-30T03:12:00;25.57;;;11.27;;
55815;SDS011;41744;52.404;16.942;2024-01-30T03:14:26;35.90;;;11.83;;
55815;SDS011;41744;52.404;16.942;2024-01-30T03:16:52;32.13;;;13.10;;
55815;SDS011;41744;52.404;16.942;2024-01-30T03:19:18;32.57;;;11.40;;
55815;SDS011;41744;52.404;16.942;2024-01-30T03:21:44;34.60;;;13.07;;
55815;SDS011;41744;52.404;16.942;2024-01-30T03:24:10;35.37;;;12.97;;
55815;SDS011;41744;52.404;16.942;2024-01-30T03:26:36;28.00;;;11.33;;
55815;SDS011;41744;52.404;16.942;2024-01-30T03:29:02;33.57;;;12.20;;
55815;SDS011;41744;52.404;16.942;2024-01-30T03:31:28;32.43;;;11.27;;
55815;SDS011;41744;52.404;16.942;2024-01-30T03:33:54;32.47;;;11.47;;
55815;SDS011;41744;52.404;16.942;2024-01-30T03:36:20;32.13;;;11.67;;
55815;SDS011;41744;52.404;16.942;2024-01-30T03:38:46;34.10;;;12.37;;
55815;SDS011;41744;52.404;16.942;2024-01-30T03:41:12;31.27;;;12.13;;
55815;SDS011;41744;52.404;16.942;2024-01-30T03:43:38;32.70;;;11.90;;
55815;SDS011;41744;52.404;16.942;2024-01-30T03:46:04;35.40;;;12.10;;
55815;SDS011;41744;52.404;16.942;2024-01-30T03:48:30;32.53;;;11.97;;
55815;SDS011;41744;52.404;16.942;2024-01-30T03:50:56;32.93;;;11.10;;
55815;SDS011;41744;52.404;16.942;2024-01-30T03:53:22;33.43;;;11.20;;
55815;SDS011;41744;52.404;16.942;2024-01-30T03:55:48;30.37;;;11.40;;
55815;SDS011;41744;52.404;16.942;2024-01-30T03:58:14;34.97;;;11.77;;
55815;SDS011;41744;52.404;16.942;2024-01-30T04:00:40;32.20;;;11.30;;
55815;SDS011;41744;52.404;16.942;2024-01-30T04:03:06;32.07;;;11.77;;
55815;SDS011;41744;52.404;16.942;2024-01-30T04:05:32;29.53;;;11.50;;
55815;SDS011;41744;52.404;16.942;2024-01-30T04:07:58;32.30;;;12.17;;
55815;SDS011;41744;52.404;16.942;2024-01-30T04:10:24;29.87;;;11.00;;
55815;SDS011;41744;52.404;16.942;2024-01-30T04:12:50;28.23;;;11.53;;
55815;SDS011;41744;52.404;16.942;2024-01-30T04:15:19;36.53;;;12.43;;
55815;SDS011;41744;52.404;16.942;2024-01-30T04:17:45;27.40;;;11.60;;
55815;SDS011;41744;52.404;16.942;2024-01-30T04:20:14;33.43;;;11.20;;
55815;SDS011;41744;52.404;16.942;2024-01-30T04:22:42;26.53;;;11.03;;
55815;SDS011;41744;52.404;16.942;2024-01-30T04:25:08;30.13;;;11.27;;
55815;SDS011;41744;52.404;16.942;2024-01-30T04:27:34;36.43;;;11.87;;
55815;SDS011;41744;52.404;16.942;2024-01-30T04:30:00;29.07;;;11.30;;
55815;SDS011;41744;52.404;16.942;2024-01-30T04:32:26;31.50;;;11.80;;
55815;SDS011;41744;52.404;16.942;2024-01-30T04:34:52;28.50;;;11.53;;
55815;SDS011;41744;52.404;16.942;2024-01-30T04:37:18;28.37;;;10.97;;
55815;SDS011;41744;52.404;16.942;2024-01-30T04:39:44;27.40;;;11.23;;
55815;SDS011;41744;52.404;16.942;2024-01-30T04:42:10;34.10;;;11.30;;
55815;SDS011;41744;52.404;16.942;2024-01-30T04:44:36;33.83;;;11.23;;
55815;SDS011;41744;52.404;16.942;2024-01-30T04:47:02;32.20;;;11.37;;
55815;SDS011;41744;52.404;16.942;2024-01-30T04:49:30;27.73;;;11.37;;
55815;SDS011;41744;52.404;16.942;2024-01-30T04:51:56;29.20;;;10.80;;
55815;SDS011;41744;52.404;16.942;2024-01-30T04:54:22;33.87;;;10.87;;
55815;SDS011;41744;52.404;16.942;2024-01-30T04:56:48;27.57;;;11.10;;
55815;SDS011;41744;52.404;16.942;2024-01-30T04:59:14;26.50;;;10.30;;
55815;SDS011;41744;52.404;16.942;2024-01-30T05:01:40;31.20;;;10.70;;
55815;SDS011;41744;52.404;16.942;2024-01-30T05:04:09;28.80;;;10.67;;
55815;SDS011;41744;52.404;16.942;2024-01-30T05:06:36;28.77;;;10.97;;
55815;SDS011;41744;52.404;16.942;2024-01-30T05:09:02;28.00;;;10.50;;
55815;SDS011;41744;52.404;16.942;2024-01-30T05:11:31;27.97;;;10.57;;
55815;SDS011;41744;52.404;16.942;2024-01-30T05:13:57;30.27;;;11.30;;
55815;SDS011;41744;52.404;16.942;2024-01-30T05:16:23;31.43;;;11.23;;
55815;SDS011;41744;52.404;16.942;2024-01-30T05:18:49;31.20;;;11.23;;
55815;SDS011;41744;52.404;16.942;2024-01-30T05:21:15;28.40;;;11.10;;
55815;SDS011;41744;52.404;16.942;2024-01-30T05:23:41;31.60;;;11.10;;
55815;SDS011;41744;52.404;16.942;2024-01-30T05:26:07;33.97;;;11.57;;
55815;SDS011;41744;52.404;16.942;2024-01-30T05:28:33;32.77;;;12.00;;
55815;SDS011;41744;52.404;16.942;2024-01-30T05:30:59;28.33;;;10.90;;
55815;SDS011;41744;52.404;16.942;2024-01-30T05:33:25;29.77;;;11.57;;
55815;SDS011;41744;52.404;16.942;2024-01-30T05:35:51;29.47;;;11.27;;
55815;SDS011;41744;52.404;16.942;2024-01-30T05:38:19;29.17;;;11.17;;
55815;SDS011;41744;52.404;16.942;2024-01-30T05:40:45;30.73;;;11.43;;
55815;SDS011;41744;52.404;16.942;2024-01-30T05:43:11;29.73;;;11.40;;
55815;SDS011;41744;52.404;16.942;2024-01-30T05:45:37;30.00;;;11.30;;
55815;SDS011;41744;52.404;16.942;2024-01-30T05:48:03;33.57;;;11.77;;
55815;SDS011;41744;52.404;16.942;2024-01-30T05:50:30;32.10;;;10.97;;
55815;SDS011;41744;52.404;16.942;2024-01-30T05:52:56;28.20;;;11.33;;
55815;SDS011;41744;52.404;16.942;2024-01-30T05:55:22;28.13;;;10.70;;
55815;SDS011;41744;52.404;16.942;2024-01-30T05:57:48;30.83;;;11.77;;
55815;SDS011;41744;52.404;16.942;2024-01-30T06:00:14;35.30;;;12.30;;
55815;SDS011;41744;52.404;16.942;2024-01-30T06:02:40;34.00;;;13.30;;
55815;SDS011;41744;52.404;16.942;2024-01-30T06:05:06;39.53;;;14.47;;
55815;SDS011;41744;52.404;16.942;2024-01-30T06:07:32;48.83;;;15.40;;
55815;SDS011;41744;52.404;16.942;2024-01-30T06:09:58;42.83;;;14.70;;
55815;SDS011;41744;52.404;16.942;2024-01-30T06:12:27;43.27;;;14.37;;
55815;SDS011;41744;52.404;16.942;2024-01-30T06:14:53;40.50;;;14.70;;
55815;SDS011;41744;52.404;16.942;2024-01-30T06:17:21;40.43;;;13.40;;
55815;SDS011;41744;52.404;16.942;2024-01-30T06:19:47;34.17;;;13.37;;
55815;SDS011;41744;52.404;16.942;2024-01-30T06:22:13;36.17;;;12.67;;
55815;SDS011;41744;52.404;16.942;2024-01-30T06:24:39;42.97;;;13.80;;
55815;SDS011;41744;52.404;16.942;2024-01-30T06:27:05;37.20;;;14.07;;
55815;SDS011;41744;52.404;16.942;2024-01-30T06:29:31;29.67;;;12.67;;
55815;SDS011;41744;52.404;16.942;2024-01-30T06:31:57;37.57;;;13.83;;
55815;SDS011;41744;52.404;16.942;2024-01-30T06:34:23;34.53;;;12.83;;
55815;SDS011;41744;52.404;16.942;2024-01-30T06:36:51;35.43;;;13.30;;
55815;SDS011;41744;52.404;16.942;2024-01-30T06:39:17;33.43;;;12.23;;
55815;SDS011;41744;52.404;16.942;2024-01-30T06:41:43;33.97;;;12.60;;
55815;SDS011;41744;52.404;16.942;2024-01-30T06:44:11;30.47;;;12.00;;
55815;SDS011;41744;52.404;16.942;2024-01-30T06:46:37;30.60;;;12.23;;
55815;SDS011;41744;52.404;16.942;2024-01-30T06:49:03;30.30;;;12.40;;
55815;SDS011;41744;52.404;16.942;2024-01-30T06:51:29;34.07;;;11.40;;
55815;SDS011;41744;52.404;16.942;2024-01-30T06:53:55;31.13;;;12.17;;
55815;SDS011;41744;52.404;16.942;2024-01-30T06:56:21;38.20;;;13.20;;
55815;SDS011;41744;52.404;16.942;2024-01-30T06:58:48;36.57;;;13.00;;
55815;SDS011;41744;52.404;16.942;2024-01-30T07:01:14;30.77;;;12.80;;
55815;SDS011;41744;52.404;16.942;2024-01-30T07:03:40;33.60;;;12.17;;
55815;SDS011;41744;52.404;16.942;2024-01-30T07:06:06;32.60;;;12.33;;
55815;SDS011;41744;52.404;16.942;2024-01-30T07:08:32;27.83;;;11.40;;
55815;SDS011;41744;52.404;16.942;2024-01-30T07:10:58;32.77;;;12.20;;
55815;SDS011;41744;52.404;16.942;2024-01-30T07:13:24;30.43;;;11.57;;
55815;SDS011;41744;52.404;16.942;2024-01-30T07:15:50;30.73;;;10.40;;
55815;SDS011;41744;52.404;16.942;2024-01-30T07:18:16;30.33;;;11.30;;
55815;SDS011;41744;52.404;16.942;2024-01-30T07:20:42;32.73;;;12.60;;
55815;SDS011;41744;52.404;16.942;2024-01-30T07:23:14;34.40;;;11.87;;
55815;SDS011;41744;52.404;16.942;2024-01-30T07:25:41;27.57;;;11.13;;
55815;SDS011;41744;52.404;16.942;2024-01-30T07:28:08;32.17;;;12.07;;
55815;SDS011;41744;52.404;16.942;2024-01-30T07:30:35;31.13;;;11.87;;
55815;SDS011;41744;52.404;16.942;2024-01-30T07:33:01;28.77;;;11.60;;
55815;SDS011;41744;52.404;16.942;2024-01-30T07:35:26;28.97;;;11.23;;
55815;SDS011;41744;52.404;16.942;2024-01-30T07:37:52;31.20;;;10.73;;
55815;SDS011;41744;52.404;16.942;2024-01-30T07:40:18;29.37;;;11.77;;
55815;SDS011;41744;52.404;16.942;2024-01-30T07:42:44;31.90;;;10.73;;
55815;SDS011;41744;52.404;16.942;2024-01-30T07:45:10;30.83;;;11.03;;
55815;SDS011;41744;52.404;16.942;2024-01-30T07:47:36;34.10;;;12.53;;
55815;SDS011;41744;52.404;16.942;2024-01-30T07:50:02;30.67;;;11.53;;
55815;SDS011;41744;52.404;16.942;2024-01-30T07:52:28;26.07;;;11.47;;
55815;SDS011;41744;52.404;16.942;2024-01-30T07:54:54;39.77;;;11.87;;
55815;SDS011;41744;52.404;16.942;2024-01-30T07:57:21;29.43;;;11.97;;
55815;SDS011;41744;52.404;16.942;2024-01-30T07:59:47;35.77;;;12.30;;
55815;SDS011;41744;52.404;16.942;2024-01-30T08:02:13;28.80;;;11.80;;
55815;SDS011;41744;52.404;16.942;2024-01-30T08:04:39;29.77;;;10.90;;
55815;SDS011;41744;52.404;16.942;2024-01-30T08:07:05;32.33;;;11.00;;
55815;SDS011;41744;52.404;16.942;2024-01-30T08:09:31;33.80;;;12.00;;
55815;SDS011;41744;52.404;16.942;2024-01-30T08:11:57;33.87;;;11.70;;
55815;SDS011;41744;52.404;16.942;2024-01-30T08:14:23;25.27;;;9.53;;
55815;SDS011;41744;52.404;16.942;2024-01-30T08:16:49;22.40;;;10.40;;
55815;SDS011;41744;52.404;16.942;2024-01-30T08:19:15;28.73;;;10.90;;
55815;SDS011;41744;52.404;16.942;2024-01-30T08:21:41;27.93;;;11.17;;
55815;SDS011;41744;52.404;16.942;2024-01-30T08:24:07;25.23;;;10.13;;
55815;SDS011;41744;52.404;16.942;2024-01-30T08:26:33;21.50;;;9.40;;
55815;SDS011;41744;52.404;16.942;2024-01-30T08:29:00;25.53;;;9.67;;
55815;SDS011;41744;52.404;16.942;2024-01-30T08:31:26;25.87;;;9.83;;
55815;SDS011;41744;52.404;16.942;2024-01-30T08:33:52;25.43;;;9.77;;
55815;SDS011;41744;52.404;16.942;2024-01-30T08:36:18;20.10;;;9.27;;
55815;SDS011;41744;52.404;16.942;2024-01-30T08:38:44;27.33;;;9.23;;
55815;SDS011;41744;52.404;16.942;2024-01-30T08:41:11;22.37;;;9.50;;
55815;SDS011;41744;52.404;16.942;2024-01-30T08:43:37;21.07;;;9.23;;
55815;SDS011;41744;52.404;16.942;2024-01-30T08:46:03;22.70;;;8.30;;
55815;SDS011;41744;52.404;16.942;2024-01-30T08:48:29;26.43;;;8.87;;
55815;SDS011;41744;52.404;16.942;2024-01-30T08:50:55;21.47;;;8.73;;
55815;SDS011;41744;52.404;16.942;2024-01-30T08:53:21;18.97;;;8.20;;
55815;SDS011;41744;52.404;16.942;2024-01-30T08:55:47;19.97;;;7.37;;
55815;SDS011;41744;52.404;16.942;2024-01-30T08:58:13;19.80;;;8.40;;
55815;SDS011;41744;52.404;16.942;2024-01-30T09:00:40;21.33;;;8.87;;
55815;SDS011;41744;52.404;16.942;2024-01-30T09:03:06;25.07;;;8.60;;
55815;SDS011;41744;52.404;16.942;2024-01-30T09:05:32;21.07;;;8.03;;
55815;SDS011;41744;52.404;16.942;2024-01-30T09:07:58;23.10;;;8.73;;
55815;SDS011;41744;52.404;16.942;2024-01-30T09:10:24;24.60;;;8.97;;
55815;SDS011;41744;52.404;16.942;2024-01-30T09:12:50;24.63;;;9.50;;
55815;SDS011;41744;52.404;16.942;2024-01-30T09:15:16;25.80;;;9.20;;
55815;SDS011;41744;52.404;16.942;2024-01-30T09:17:42;25.07;;;9.77;;
55815;SDS011;41744;52.404;16.942;2024-01-30T09:20:08;26.57;;;10.10;;
55815;SDS011;41744;52.404;16.942;2024-01-30T09:22:34;26.47;;;10.37;;
55815;SDS011;41744;52.404;16.942;2024-01-30T09:25:00;27.90;;;10.40;;
55815;SDS011;41744;52.404;16.942;2024-01-30T09:27:26;31.47;;;10.73;;
55815;SDS011;41744;52.404;16.942;2024-01-30T09:29:52;22.97;;;10.20;;
55815;SDS011;41744;52.404;16.942;2024-01-30T09:32:18;27.43;;;9.67;;
55815;SDS011;41744;52.404;16.942;2024-01-30T09:34:44;22.73;;;9.90;;
55815;SDS011;41744;52.404;16.942;2024-01-30T09:37:10;21.30;;;8.70;;
55815;SDS011;41744;52.404;16.942;2024-01-30T09:39:36;19.57;;;8.63;;
55815;SDS011;41744;52.404;16.942;2024-01-30T09:42:05;22.47;;;9.73;;
55815;SDS011;41744;52.404;16.942;2024-01-30T09:44:31;27.57;;;10.20;;
55815;SDS011;41744;52.404;16.942;2024-01-30T09:46:57;25.30;;;9.10;;
55815;SDS011;41744;52.404;16.942;2024-01-30T09:49:28;23.97;;;8.90;;
55815;SDS011;41744;52.404;16.942;2024-01-30T09:51:55;25.40;;;9.70;;
55815;SDS011;41744;52.404;16.942;2024-01-30T09:54:21;23.10;;;9.90;;
55815;SDS011;41744;52.404;16.942;2024-01-30T09:56:47;23.67;;;8.70;;
55815;SDS011;41744;52.404;16.942;2024-01-30T09:59:13;24.73;;;8.93;;
55815;SDS011;41744;52.404;16.942;2024-01-30T10:01:39;25.40;;;9.93;;
55815;SDS011;41744;52.404;16.942;2024-01-30T10:04:05;25.07;;;9.87;;
55815;SDS011;41744;52.404;16.942;2024-01-30T10:06:32;21.47;;;9.20;;
55815;SDS011;41744;52.404;16.942;2024-01-30T10:08:59;23.60;;;8.87;;
55815;SDS011;41744;52.404;16.942;2024-01-30T10:11:24;23.10;;;8.87;;
55815;SDS011;41744;52.404;16.942;2024-01-30T10:13:51;26.20;;;9.37;;
55815;SDS011;41744;52.404;16.942;2024-01-30T10:16:17;22.47;;;9.13;;
55815;SDS011;41744;52.404;16.942;2024-01-30T10:18:43;24.40;;;9.07;;
55815;SDS011;41744;52.404;16.942;2024-01-30T10:21:09;21.17;;;9.00;;
55815;SDS011;41744;52.404;16.942;2024-01-30T10:23:35;22.07;;;8.43;;
55815;SDS011;41744;52.404;16.942;2024-01-30T10:26:06;20.90;;;8.67;;
55815;SDS011;41744;52.404;16.942;2024-01-30T10:28:33;24.50;;;8.77;;
55815;SDS011;41744;52.404;16.942;2024-01-30T10:30:59;22.03;;;8.50;;
55815;SDS011;41744;52.404;16.942;2024-01-30T10:33:26;23.03;;;8.50;;
55815;SDS011;41744;52.404;16.942;2024-01-30T10:36:00;21.33;;;8.70;;
55815;SDS011;41744;52.404;16.942;2024-01-30T10:38:27;18.50;;;8.43;;
55815;SDS011;41744;52.404;16.942;2024-01-30T10:40:56;25.93;;;9.67;;
55815;SDS011;41744;52.404;16.942;2024-01-30T10:43:22;25.70;;;8.90;;
55815;SDS011;41744;52.404;16.942;2024-01-30T10:45:49;18.83;;;8.83;;
55815;SDS011;41744;52.404;16.942;2024-01-30T10:48:15;21.43;;;8.67;;
55815;SDS011;41744;52.404;16.942;2024-01-30T10:50:42;23.67;;;9.00;;
55815;SDS011;41744;52.404;16.942;2024-01-30T10:53:08;21.50;;;8.67;;
55815;SDS011;41744;52.404;16.942;2024-01-30T10:55:35;24.20;;;9.27;;
55815;SDS011;41744;52.404;16.942;2024-01-30T10:58:02;20.27;;;8.70;;
55815;SDS011;41744;52.404;16.942;2024-01-30T11:00:29;19.17;;;8.17;;
55815;SDS011;41744;52.404;16.942;2024-01-30T11:02:58;25.07;;;8.80;;
55815;SDS011;41744;52.404;16.942;2024-01-30T11:05:24;23.97;;;8.73;;
55815;SDS011;41744;52.404;16.942;2024-01-30T11:07:54;21.87;;;9.10;;
55815;SDS011;41744;52.404;16.942;2024-01-30T11:10:20;23.63;;;8.57;;
55815;SDS011;41744;52.404;16.942;2024-01-30T11:12:46;28.17;;;9.07;;
55815;SDS011;41744;52.404;16.942;2024-01-30T11:15:13;19.43;;;8.57;;
55815;SDS011;41744;52.404;16.942;2024-01-30T11:17:43;22.73;;;8.77;;
55815;SDS011;41744;52.404;16.942;2024-01-30T11:20:09;22.03;;;8.73;;
55815;SDS011;41744;52.404;16.942;2024-01-30T11:22:36;18.97;;;8.33;;
55815;SDS011;41744;52.404;16.942;2024-01-30T11:25:02;19.53;;;8.17;;
55815;SDS011;41744;52.404;16.942;2024-01-30T11:27:30;22.07;;;8.87;;
55815;SDS011;41744;52.404;16.942;2024-01-30T11:30:05;23.77;;;8.80;;
55815;SDS011;41744;52.404;16.942;2024-01-30T11:32:32;19.70;;;8.47;;
55815;SDS011;41744;52.404;16.942;2024-01-30T11:34:58;20.67;;;8.80;;
55815;SDS011;41744;52.404;16.942;2024-01-30T11:37:25;21.80;;;8.90;;
55815;SDS011;41744;52.404;16.942;2024-01-30T11:39:54;23.30;;;8.67;;
55815;SDS011;41744;52.404;16.942;2024-01-30T11:42:23;21.53;;;9.10;;
55815;SDS011;41744;52.404;16.942;2024-01-30T11:44:53;20.07;;;8.37;;
55815;SDS011;41744;52.404;16.942;2024-01-30T11:47:19;20.83;;;8.53;;
55815;SDS011;41744;52.404;16.942;2024-01-30T11:49:45;23.40;;;8.93;;
55815;SDS011;41744;52.404;16.942;2024-01-30T11:52:11;24.70;;;9.20;;
55815;SDS011;41744;52.404;16.942;2024-01-30T11:54:39;25.93;;;8.93;;
55815;SDS011;41744;52.404;16.942;2024-01-30T11:57:05;23.97;;;9.20;;
55815;SDS011;41744;52.404;16.942;2024-01-30T11:59:31;23.33;;;8.60;;
55815;SDS011;41744;52.404;16.942;2024-01-30T12:01:57;21.43;;;8.27;;
55815;SDS011;41744;52.404;16.942;2024-01-30T12:04:23;17.90;;;8.03;;
55815;SDS011;41744;52.404;16.942;2024-01-30T12:06:53;22.65;;;8.50;;
55815;SDS011;41744;52.404;16.942;2024-01-30T12:09:19;17.50;;;8.27;;
55815;SDS011;41744;52.404;16.942;2024-01-30T12:11:45;22.13;;;8.63;;
55815;SDS011;41744;52.404;16.942;2024-01-30T12:14:12;20.97;;;8.60;;
55815;SDS011;41744;52.404;16.942;2024-01-30T12:16:38;23.47;;;8.40;;
55815;SDS011;41744;52.404;16.942;2024-01-30T12:19:06;19.17;;;8.13;;
55815;SDS011;41744;52.404;16.942;2024-01-30T12:21:33;20.10;;;8.30;;
55815;SDS011;41744;52.404;16.942;2024-01-30T12:23:59;23.67;;;8.47;;
55815;SDS011;41744;52.404;16.942;2024-01-30T12:26:25;23.07;;;8.60;;
55815;SDS011;41744;52.404;16.942;2024-01-30T12:28:55;24.37;;;8.70;;
55815;SDS011;41744;52.404;16.942;2024-01-30T12:31:27;23.17;;;8.83;;
55815;SDS011;41744;52.404;16.942;2024-01-30T12:33:53;20.00;;;7.97;;
55815;SDS011;41744;52.404;16.942;2024-01-30T12:36:19;22.30;;;7.97;;
55815;SDS011;41744;52.404;16.942;2024-01-30T12:38:45;21.07;;;8.13;;
55815;SDS011;41744;52.404;16.942;2024-01-30T12:41:11;21.17;;;8.40;;
55815;SDS011;41744;52.404;16.942;2024-01-30T12:43:37;19.80;;;7.97;;
55815;SDS011;41744;52.404;16.942;2024-01-30T12:46:04;18.23;;;7.63;;
55815;SDS011;41744;52.404;16.942;2024-01-30T12:48:30;22.90;;;8.00;;
55815;SDS011;41744;52.404;16.942;2024-01-30T12:50:56;26.17;;;8.10;;
55815;SDS011;41744;52.404;16.942;2024-01-30T12:53:22;18.27;;;7.83;;
55815;SDS011;41744;52.404;16.942;2024-01-30T12:55:48;21.23;;;8.10;;
55815;SDS011;41744;52.404;16.942;2024-01-30T12:58:15;20.37;;;8.30;;
55815;SDS011;41744;52.404;16.942;2024-01-30T13:00:41;24.43;;;7.80;;
55815;SDS011;41744;52.404;16.942;2024-01-30T13:03:08;20.65;;;8.88;;
55815;SDS011;41744;52.404;16.942;2024-01-30T13:05:34;24.50;;;9.10;;
55815;SDS011;41744;52.404;16.942;2024-01-30T13:08:00;24.53;;;8.10;;
55815;SDS011;41744;52.404;16.942;2024-01-30T13:10:27;20.63;;;8.33;;
55815;SDS011;41744;52.404;16.942;2024-01-30T13:12:53;24.37;;;8.57;;
55815;SDS011;41744;52.404;16.942;2024-01-30T13:15:19;16.97;;;7.73;;
55815;SDS011;41744;52.404;16.942;2024-01-30T13:17:45;22.57;;;8.10;;
55815;SDS011;41744;52.404;16.942;2024-01-30T13:20:13;19.13;;;8.13;;
55815;SDS011;41744;52.404;16.942;2024-01-30T13:22:45;19.57;;;8.50;;
55815;SDS011;41744;52.404;16.942;2024-01-30T13:25:11;22.07;;;8.30;;
55815;SDS011;41744;52.404;16.942;2024-01-30T13:27:37;20.87;;;9.00;;
55815;SDS011;41744;52.404;16.942;2024-01-30T13:30:03;19.97;;;8.13;;
55815;SDS011;41744;52.404;16.942;2024-01-30T13:32:29;19.33;;;8.57;;
55815;SDS011;41744;52.404;16.942;2024-01-30T13:34:55;21.27;;;8.80;;
55815;SDS011;41744;52.404;16.942;2024-01-30T13:37:22;24.40;;;9.37;;
55815;SDS011;41744;52.404;16.942;2024-01-30T13:39:48;20.17;;;8.93;;
55815;SDS011;41744;52.404;16.942;2024-01-30T13:42:14;20.10;;;8.53;;
55815;SDS011;41744;52.404;16.942;2024-01-30T13:44:40;24.77;;;9.33;;
55815;SDS011;41744;52.404;16.942;2024-01-30T13:47:08;21.30;;;9.57;;
55815;SDS011;41744;52.404;16.942;2024-01-30T13:49:34;20.27;;;9.20;;
55815;SDS011;41744;52.404;16.942;2024-01-30T13:52:00;21.77;;;9.30;;
55815;SDS011;41744;52.404;16.942;2024-01-30T13:54:27;22.13;;;9.50;;
55815;SDS011;41744;52.404;16.942;2024-01-30T13:56:53;22.57;;;9.40;;
55815;SDS011;41744;52.404;16.942;2024-01-30T13:59:19;25.33;;;9.50;;
55815;SDS011;41744;52.404;16.942;2024-01-30T14:01:49;19.60;;;8.53;;
55815;SDS011;41744;52.404;16.942;2024-01-30T14:04:15;23.60;;;9.80;;
55815;SDS011;41744;52.404;16.942;2024-01-30T14:06:41;25.87;;;9.40;;
55815;SDS011;41744;52.404;16.942;2024-01-30T14:09:07;22.27;;;9.77;;